Time;durP1;ratioP1;P1;durP2;ratioP2;P2;SDS_P1;SDS_P2;PMS_P1;PMS_P2;Temp;Humidity;BMP_temperature;BMP_pressure;BME280_temperature;BME280_humidity;BME280_pressure;Samples;Min_cycle;Max_cycle;Signal;HPM_P1;HPM_P2
2023/10/04 00:01:06;;;;;;;4.00;2.03;;;13.60;99.90;;;;;;5030022;28;20924;-68
2023/10/04 00:03:32;;;;;;;6.00;4.73;;;13.60;99.90;;;;;;5029987;28;20441;-69
2023/10/04 00:05:57;;;;;;;6.00;2.47;;;13.50;99.90;;;;;;5006571;28;20447;-68
2023/10/04 00:08:25;;;;;;;9.10;3.70;;;13.40;99.90;;;;;;5029999;28;20199;-68
2023/10/04 00:10:51;;;;;;;7.87;2.70;;;13.40;99.90;;;;;;5020727;28;20253;-68
2023/10/04 00:13:16;;;;;;;3.80;1.83;;;13.30;99.90;;;;;;5029154;28;20442;-68
2023/10/04 00:15:42;;;;;;;7.93;2.00;;;13.20;99.90;;;;;;5024052;28;20758;-69
2023/10/04 00:18:09;;;;;;;7.13;2.73;;;13.20;99.90;;;;;;5026805;28;20241;-68
2023/10/04 00:20:35;;;;;;;8.07;2.63;;;13.20;99.90;;;;;;5029944;28;20950;-69
2023/10/04 00:23:04;;;;;;;4.03;2.30;;;13.20;99.90;;;;;;5023709;28;20961;-68
2023/10/04 00:25:30;;;;;;;3.00;1.70;;;13.20;99.90;;;;;;5028702;28;20195;-69
2023/10/04 00:27:56;;;;;;;13.63;2.53;;;13.30;99.90;;;;;;5026654;28;20446;-69
2023/10/04 00:30:26;;;;;;;10.33;2.50;;;13.20;99.90;;;;;;5027424;28;20488;-68
2023/10/04 00:32:53;;;;;;;3.90;2.37;;;13.10;99.90;;;;;;5025915;28;20289;-68
2023/10/04 00:35:19;;;;;;;5.63;2.27;;;13.10;99.90;;;;;;5022628;28;20427;-68
2023/10/04 00:37:51;;;;;;;3.50;2.37;;;13.10;99.90;;;;;;5015870;28;21038;-69
2023/10/04 00:40:21;;;;;;;7.67;3.40;;;13.00;99.90;;;;;;5028776;28;20430;-69
2023/10/04 00:42:49;;;;;;;3.73;2.40;;;13.00;99.90;;;;;;5030399;28;20422;-68
2023/10/04 00:45:15;;;;;;;3.70;2.30;;;12.90;99.90;;;;;;5021267;28;20444;-68
2023/10/04 00:47:43;;;;;;;8.80;2.53;;;12.90;99.90;;;;;;5020343;28;20468;-68
2023/10/04 00:50:17;;;;;;;7.50;3.00;;;12.90;99.90;;;;;;5028104;28;20434;-68
2023/10/04 00:52:47;;;;;;;9.87;2.70;;;12.80;99.90;;;;;;5019030;28;20461;-68
2023/10/04 00:55:16;;;;;;;3.23;2.13;;;12.80;99.90;;;;;;5020321;28;20437;-67
2023/10/04 00:57:42;;;;;;;10.77;2.67;;;12.80;99.90;;;;;;5021420;28;20432;-68
2023/10/04 01:00:10;;;;;;;3.87;2.20;;;12.80;99.90;;;;;;5020744;28;20543;-69
2023/10/04 01:02:36;;;;;;;4.97;2.57;;;12.70;99.90;;;;;;5030984;28;20176;-68
2023/10/04 01:05:04;;;;;;;5.90;2.17;;;12.80;99.90;;;;;;5026688;28;20442;-68
2023/10/04 01:07:31;;;;;;;4.90;2.37;;;12.70;99.90;;;;;;5028356;28;20470;-69
2023/10/04 01:09:58;;;;;;;3.73;2.20;;;12.70;99.90;;;;;;5026794;28;20488;-68
2023/10/04 01:12:24;;;;;;;7.30;2.37;;;12.60;99.90;;;;;;5013908;28;20455;-67
2023/10/04 01:14:53;;;;;;;4.50;2.10;;;12.60;99.90;;;;;;5024465;28;20416;-70
2023/10/04 01:17:19;;;;;;;4.17;2.20;;;12.60;99.90;;;;;;5025612;28;20447;-68
2023/10/04 01:19:44;;;;;;;4.20;1.60;;;12.60;99.90;;;;;;5022580;28;20438;-68
2023/10/04 01:22:11;;;;;;;3.53;2.13;;;12.60;99.90;;;;;;5022975;28;20858;-68
2023/10/04 01:24:41;;;;;;;6.20;2.50;;;12.60;99.90;;;;;;5012997;28;20199;-68
2023/10/04 01:27:10;;;;;;;6.63;2.40;;;12.60;99.90;;;;;;5030009;28;20497;-68
2023/10/04 01:29:38;;;;;;;9.73;2.37;;;12.50;99.90;;;;;;5030490;28;20777;-68
2023/10/04 01:32:07;;;;;;;4.67;2.40;;;12.50;99.90;;;;;;5028623;28;20489;-68
2023/10/04 01:34:33;;;;;;;4.47;2.17;;;12.60;99.90;;;;;;5021963;28;20810;-68
2023/10/04 01:36:58;;;;;;;7.50;2.60;;;12.60;99.90;;;;;;5028278;28;20454;-69
2023/10/04 01:39:30;;;;;;;4.00;2.47;;;12.60;99.90;;;;;;5022230;28;20603;-68
2023/10/04 01:41:55;;;;;;;4.33;2.10;;;12.50;99.90;;;;;;5030314;28;20638;-68
2023/10/04 01:44:21;;;;;;;7.30;2.50;;;12.50;99.90;;;;;;5021960;28;20413;-68
2023/10/04 01:46:47;;;;;;;5.23;2.40;;;12.40;99.90;;;;;;5028582;28;20356;-68
2023/10/04 01:49:12;;;;;;;6.33;3.37;;;12.50;99.90;;;;;;5015446;28;20598;-67
2023/10/04 01:51:42;;;;;;;2.67;1.80;;;12.40;99.90;;;;;;5025926;28;20202;-67
2023/10/04 01:54:09;;;;;;;3.40;2.30;;;12.30;99.90;;;;;;5018786;28;20172;-68
2023/10/04 01:56:36;;;;;;;5.63;2.10;;;12.30;99.90;;;;;;5028209;28;20480;-69
2023/10/04 01:59:02;;;;;;;7.00;2.50;;;12.40;99.90;;;;;;5016954;28;20430;-70
2023/10/04 02:01:27;;;;;;;3.63;2.53;;;12.30;99.90;;;;;;5025765;28;20450;-67
2023/10/04 02:03:53;;;;;;;4.63;3.67;;;12.30;99.90;;;;;;5032463;28;20433;-68
2023/10/04 02:06:19;;;;;;;9.40;2.80;;;12.40;99.90;;;;;;5033550;28;20234;-69
2023/10/04 02:08:45;;;;;;;3.63;2.03;;;12.30;99.90;;;;;;5018547;28;20199;-68
2023/10/04 02:11:11;;;;;;;4.30;2.60;;;12.30;99.90;;;;;;5030864;28;20195;-69
2023/10/04 02:13:40;;;;;;;6.00;2.70;;;12.30;99.90;;;;;;5017548;28;20914;-69
2023/10/04 02:16:08;;;;;;;5.03;2.50;;;12.30;99.90;;;;;;5030094;28;20465;-69
2023/10/04 02:18:34;;;;;;;14.50;4.13;;;12.20;99.90;;;;;;5033104;28;20418;-70
2023/10/04 02:20:59;;;;;;;6.50;2.50;;;12.20;99.90;;;;;;5031609;28;20437;-70
2023/10/04 02:23:25;;;;;;;8.00;2.50;;;12.30;99.90;;;;;;5028226;28;20567;-69
2023/10/04 02:25:52;;;;;;;3.07;2.77;;;12.30;99.90;;;;;;5029403;28;20242;-69
2023/10/04 02:28:24;;;;;;;4.47;2.63;;;12.40;99.90;;;;;;5026251;28;20189;-69
2023/10/04 02:30:51;;;;;;;4.63;2.70;;;12.40;99.90;;;;;;5023962;28;20485;-69
2023/10/04 02:33:17;;;;;;;5.20;3.13;;;12.50;99.90;;;;;;5034065;28;20410;-68
2023/10/04 02:35:44;;;;;;;4.10;2.63;;;12.40;99.90;;;;;;5021483;28;20750;-68
2023/10/04 02:38:23;;;;;;;6.90;3.00;;;12.40;99.90;;;;;;5019602;28;20199;-68
2023/10/04 02:40:52;;;;;;;5.30;3.10;;;12.50;99.90;;;;;;5027121;28;20425;-68
2023/10/04 02:43:20;;;;;;;7.83;3.30;;;12.50;99.90;;;;;;5025635;28;20430;-71
2023/10/04 02:45:47;;;;;;;3.43;2.30;;;12.50;99.90;;;;;;5031084;28;20426;-69
2023/10/04 02:48:13;;;;;;;5.80;2.90;;;12.50;99.90;;;;;;5033867;28;20788;-69
2023/10/04 02:50:43;;;;;;;3.03;2.73;;;12.40;99.90;;;;;;5022865;28;20435;-69
2023/10/04 02:53:12;;;;;;;3.83;2.70;;;12.40;99.90;;;;;;5029542;28;20175;-69
2023/10/04 02:55:38;;;;;;;4.40;2.60;;;12.40;99.90;;;;;;5030326;28;20537;-69
2023/10/04 02:58:07;;;;;;;6.97;3.10;;;12.40;99.90;;;;;;5012813;28;20422;-70
2023/10/04 03:00:43;;;;;;;3.17;2.17;;;12.30;99.90;;;;;;5030060;28;20469;-69
2023/10/04 03:03:09;;;;;;;8.60;2.80;;;12.30;99.90;;;;;;5026962;28;20845;-69
2023/10/04 03:05:35;;;;;;;9.17;3.47;;;12.40;99.90;;;;;;5029123;28;20525;-69
2023/10/04 03:08:06;;;;;;;4.43;2.77;;;12.40;99.90;;;;;;5019192;28;20618;-69
2023/10/04 03:10:33;;;;;;;6.47;2.63;;;12.40;99.90;;;;;;5029169;28;21145;-68
2023/10/04 03:13:01;;;;;;;7.80;3.07;;;12.30;99.90;;;;;;5036883;28;20885;-69
2023/10/04 03:15:28;;;;;;;4.87;3.13;;;12.30;99.90;;;;;;5027202;28;20427;-69
2023/10/04 03:17:56;;;;;;;6.43;4.93;;;12.30;99.90;;;;;;5025090;28;20446;-68
2023/10/04 03:20:23;;;;;;;6.50;3.50;;;12.30;99.90;;;;;;5038805;28;20496;-69
2023/10/04 03:22:56;;;;;;;6.63;4.03;;;12.40;99.90;;;;;;5021800;28;20413;-69
2023/10/04 03:25:26;;;;;;;4.70;3.80;;;12.30;99.90;;;;;;5028646;28;20430;-69
2023/10/04 03:27:52;;;;;;;4.80;3.37;;;12.30;99.90;;;;;;5024366;28;20461;-68
2023/10/04 03:30:18;;;;;;;5.10;3.33;;;12.30;99.90;;;;;;5029799;28;20437;-69
2023/10/04 03:32:52;;;;;;;7.20;3.60;;;12.30;99.90;;;;;;5024479;28;20457;-69
2023/10/04 03:35:21;;;;;;;6.40;4.67;;;12.30;99.90;;;;;;5020942;28;20434;-68
2023/10/04 03:38:07;;;;;;;4.77;3.23;;;12.30;99.90;;;;;;5021381;28;20828;-69
2023/10/04 03:40:37;;;;;;;9.03;4.33;;;12.30;99.90;;;;;;5029000;28;20509;-69
2023/10/04 03:43:06;;;;;;;7.47;3.73;;;12.30;99.90;;;;;;5025438;28;20788;-67
2023/10/04 03:45:39;;;;;;;5.60;4.10;;;12.20;99.90;;;;;;5052176;23;20461;-70
2023/10/04 03:48:18;;;;;;;8.00;3.73;;;12.30;99.90;;;;;;5064550;28;20437;-71
2023/10/04 03:50:45;;;;;;;6.07;3.87;;;12.30;99.90;;;;;;5070013;28;20432;-72
2023/10/04 03:53:12;;;;;;;10.23;3.77;;;12.30;99.90;;;;;;5069177;28;20444;-71
2023/10/04 03:55:38;;;;;;;7.50;4.80;;;12.30;99.90;;;;;;5063314;28;20463;-72
2023/10/04 03:58:04;;;;;;;13.90;5.30;;;12.30;99.90;;;;;;5078896;28;20425;-72
2023/10/04 04:00:32;;;;;;;5.80;4.20;;;12.40;99.90;;;;;;5067868;28;20181;-71
2023/10/04 04:02:59;;;;;;;8.67;5.07;;;12.50;99.90;;;;;;5064273;28;20961;-71
2023/10/04 04:05:25;;;;;;;4.33;3.77;;;12.40;99.90;;;;;;5072051;28;20433;-71
2023/10/04 04:07:52;;;;;;;5.90;4.23;;;12.30;99.90;;;;;;5057747;28;20459;-71
2023/10/04 04:10:19;;;;;;;7.53;4.57;;;12.30;99.90;;;;;;5068991;28;20466;-71
2023/10/04 04:12:46;;;;;;;8.27;4.77;;;12.40;99.90;;;;;;5070490;28;20457;-70
2023/10/04 04:15:14;;;;;;;9.20;3.80;;;12.30;99.90;;;;;;5060330;28;20471;-71
2023/10/04 04:17:41;;;;;;;7.77;4.50;;;12.30;99.90;;;;;;5062623;28;20447;-71
2023/10/04 04:20:16;;;;;;;10.77;4.20;;;12.30;99.90;;;;;;5056482;28;20425;-71
2023/10/04 04:22:53;;;;;;;4.80;4.27;;;12.30;99.90;;;;;;5053121;28;20928;-71
2023/10/04 04:25:26;;;;;;;8.47;4.17;;;12.30;99.90;;;;;;5051579;28;20911;-70
2023/10/04 04:27:53;;;;;;;13.67;3.80;;;12.40;99.90;;;;;;5057527;28;20453;-71
2023/10/04 04:30:22;;;;;;;5.43;4.10;;;12.30;99.90;;;;;;5053678;28;20924;-71
2023/10/04 04:32:49;;;;;;;3.83;3.33;;;12.30;99.90;;;;;;5049938;28;20844;-71
2023/10/04 04:37:57;;;;;;;5.90;4.27;;;12.20;99.90;;;;;;5055464;28;20436;-70
2023/10/04 04:40:26;;;;;;;6.33;3.80;;;12.20;99.90;;;;;;5058468;28;20428;-71
2023/10/04 04:42:52;;;;;;;7.20;5.17;;;12.30;99.90;;;;;;5058497;28;20432;-71
2023/10/04 04:45:22;;;;;;;4.93;4.10;;;12.40;99.90;;;;;;5053335;28;20459;-71
2023/10/04 04:47:49;;;;;;;7.50;4.53;;;12.40;99.90;;;;;;5061516;28;20586;-71
2023/10/04 04:50:19;;;;;;;9.10;4.40;;;12.40;99.90;;;;;;5060923;28;20524;-71
2023/10/04 04:52:44;;;;;;;9.13;4.63;;;12.40;99.90;;;;;;5059682;28;20472;-71
2023/10/04 04:55:11;;;;;;;8.60;4.10;;;12.40;99.90;;;;;;5072078;28;20822;-71
2023/10/04 04:57:38;;;;;;;5.00;4.40;;;12.30;99.90;;;;;;5067419;28;20197;-71
2023/10/04 05:00:31;;;;;;;8.27;4.07;;;12.30;99.90;;;;;;5063265;28;20464;-71
2023/10/04 05:02:54;;;;;;;7.33;4.33;;;12.20;99.90;;;;;;5067669;28;20443;-71
2023/10/04 05:05:20;;;;;;;5.13;3.77;;;12.40;99.90;;;;;;5061814;28;20428;-71
2023/10/04 05:07:47;;;;;;;6.80;4.10;;;12.30;99.90;;;;;;5070699;28;20432;-71
2023/10/04 05:10:14;;;;;;;7.23;5.17;;;12.30;99.90;;;;;;5070210;28;20473;-71
2023/10/04 05:12:42;;;;;;;9.90;5.13;;;12.30;99.90;;;;;;5069382;28;20492;-71
2023/10/04 05:15:21;;;;;;;9.13;4.60;;;12.30;99.90;;;;;;5067894;28;20494;-71
2023/10/04 05:17:50;;;;;;;5.97;4.10;;;12.30;99.90;;;;;;5068060;28;20961;-71
2023/10/04 05:20:21;;;;;;;8.80;4.53;;;12.20;99.90;;;;;;5068076;28;20416;-70
2023/10/04 05:22:49;;;;;;;7.67;4.33;;;12.20;99.90;;;;;;5062499;28;20441;-71
2023/10/04 05:25:16;;;;;;;7.03;4.33;;;12.30;99.90;;;;;;5057373;28;20516;-70
2023/10/04 05:27:42;;;;;;;5.63;4.50;;;12.30;99.90;;;;;;5060218;28;20445;-72
2023/10/04 05:30:13;;;;;;;5.63;4.33;;;12.40;99.90;;;;;;5072613;28;20428;-72
2023/10/04 05:32:40;;;;;;;7.27;4.30;;;12.40;99.90;;;;;;5068977;28;20523;-71
2023/10/04 05:35:07;;;;;;;11.77;5.47;;;12.40;99.90;;;;;;5070793;28;20504;-71
2023/10/04 05:37:33;;;;;;;7.93;4.60;;;12.40;99.90;;;;;;5067612;28;20431;-71
2023/10/04 05:39:59;;;;;;;6.30;4.20;;;12.50;99.90;;;;;;5059196;28;21190;-71
2023/10/04 05:42:24;;;;;;;10.03;3.90;;;12.40;99.90;;;;;;5074122;28;20420;-71
2023/10/04 05:44:52;;;;;;;6.50;3.63;;;12.50;99.90;;;;;;5070571;28;20617;-72
2023/10/04 05:47:17;;;;;;;5.47;3.53;;;12.50;99.90;;;;;;5070373;28;20837;-74
2023/10/04 05:49:44;;;;;;;5.90;5.13;;;12.60;99.90;;;;;;5073420;28;20473;-70
2023/10/04 05:52:09;;;;;;;5.93;3.33;;;12.60;99.90;;;;;;5070760;28;20206;-70
2023/10/04 05:54:35;;;;;;;8.50;3.50;;;12.60;99.90;;;;;;5065861;28;20424;-70
2023/10/04 05:57:02;;;;;;;10.23;3.80;;;12.60;99.90;;;;;;5067213;28;20672;-70
2023/10/04 05:59:27;;;;;;;9.40;4.13;;;12.60;99.90;;;;;;5072548;28;20557;-71
2023/10/04 06:01:53;;;;;;;10.40;3.70;;;12.70;99.90;;;;;;5063608;28;20445;-71
2023/10/04 06:04:18;;;;;;;5.63;3.10;;;12.70;99.90;;;;;;5070868;28;20194;-70
2023/10/04 06:06:48;;;;;;;8.00;3.93;;;12.70;99.90;;;;;;5066190;28;20252;-71
2023/10/04 06:09:26;;;;;;;5.53;3.10;;;12.80;99.90;;;;;;5074896;28;20178;-72
2023/10/04 06:11:51;;;;;;;6.10;5.10;;;12.80;99.90;;;;;;5067262;28;20546;-70
2023/10/04 06:14:17;;;;;;;5.17;3.27;;;12.90;99.90;;;;;;5069722;28;20558;-70
2023/10/04 06:16:43;;;;;;;5.30;2.70;;;13.00;99.90;;;;;;5065028;28;20691;-71
2023/10/04 06:19:08;;;;;;;6.43;3.23;;;13.10;99.90;;;;;;5060671;28;20182;-71
2023/10/04 06:21:34;;;;;;;4.73;3.37;;;13.20;99.90;;;;;;5073409;28;20194;-69
2023/10/04 06:23:59;;;;;;;3.20;2.40;;;13.30;99.90;;;;;;5072497;28;20182;-70
2023/10/04 06:26:25;;;;;;;6.20;3.53;;;13.20;99.90;;;;;;5067408;28;20201;-70
2023/10/04 06:28:50;;;;;;;6.50;2.87;;;13.30;99.90;;;;;;5065308;28;20620;-71
2023/10/04 06:31:17;;;;;;;5.03;2.90;;;13.30;99.90;;;;;;5063848;28;20207;-71
2023/10/04 06:33:43;;;;;;;2.80;2.50;;;13.30;99.90;;;;;;5062560;28;20265;-70
2023/10/04 06:36:09;;;;;;;4.00;2.40;;;13.40;99.90;;;;;;5070904;28;20546;-71
2023/10/04 06:38:35;;;;;;;4.57;2.87;;;13.60;99.90;;;;;;5071972;28;20235;-71
2023/10/04 06:41:03;;;;;;;3.47;2.50;;;13.60;99.90;;;;;;5068582;28;20696;-70
2023/10/04 06:43:29;;;;;;;5.30;2.70;;;13.80;99.90;;;;;;5063176;28;20435;-70
2023/10/04 06:45:55;;;;;;;4.00;2.60;;;13.90;99.90;;;;;;5063595;28;20458;-71
2023/10/04 06:48:20;;;;;;;4.23;2.43;;;13.80;99.90;;;;;;5064431;28;20904;-70
2023/10/04 06:50:49;;;;;;;4.90;3.00;;;14.10;99.90;;;;;;5068085;28;20183;-71
2023/10/04 06:53:15;;;;;;;5.30;1.93;;;14.20;99.90;;;;;;5069810;28;20187;-70
2023/10/04 06:55:41;;;;;;;4.73;3.33;;;14.50;99.90;;;;;;5061742;28;20462;-71
2023/10/04 06:58:10;;;;;;;9.90;4.37;;;14.90;99.90;;;;;;5063981;28;20273;-69
2023/10/04 07:00:36;;;;;;;4.53;2.33;;;15.00;99.90;;;;;;5067834;28;20516;-72
2023/10/04 07:03:03;;;;;;;4.50;2.30;;;14.60;99.90;;;;;;5059005;28;20888;-70
2023/10/04 07:05:35;;;;;;;5.13;3.30;;;14.70;99.90;;;;;;5066167;28;21040;-70
2023/10/04 07:08:01;;;;;;;5.43;3.50;;;14.80;99.90;;;;;;5071978;28;20412;-70
2023/10/04 07:10:28;;;;;;;6.17;3.10;;;14.90;99.90;;;;;;5073384;28;20431;-71
2023/10/04 07:12:56;;;;;;;4.50;2.20;;;15.00;99.90;;;;;;5071612;28;20458;-70
2023/10/04 07:15:24;;;;;;;4.77;2.63;;;15.10;99.90;;;;;;5067574;28;20437;-71
2023/10/04 07:17:50;;;;;;;4.27;2.73;;;14.90;99.90;;;;;;5062224;28;20554;-71
2023/10/04 07:20:18;;;;;;;6.87;2.60;;;14.50;99.90;;;;;;5059264;28;20438;-72
2023/10/04 07:22:58;;;;;;;4.40;2.30;;;14.70;99.90;;;;;;5070832;28;20434;-72
2023/10/04 07:25:27;;;;;;;3.33;3.00;;;14.60;99.90;;;;;;5072295;28;20661;-71
2023/10/04 07:27:55;;;;;;;3.37;2.47;;;14.70;99.90;;;;;;5068094;28;20457;-70
2023/10/04 07:30:22;;;;;;;43.63;30.10;;;15.00;99.90;;;;;;5068356;28;20445;-70
2023/10/04 07:32:48;;;;;;;20.57;17.87;;;15.20;99.90;;;;;;5074099;28;20790;-70
2023/10/04 07:35:19;;;;;;;31.37;22.17;;;15.50;99.90;;;;;;5063372;28;20805;-71
2023/10/04 07:37:45;;;;;;;4.10;2.73;;;16.70;99.90;;;;;;5064196;28;20477;-70
2023/10/04 07:40:18;;;;;;;4.47;2.10;;;16.30;99.90;;;;;;5071290;28;20437;-70
2023/10/04 07:42:45;;;;;;;4.93;2.97;;;15.80;99.90;;;;;;5071915;28;20415;-70
2023/10/04 07:45:12;;;;;;;4.97;2.70;;;15.90;99.90;;;;;;5068824;28;20529;-69
2023/10/04 07:47:41;;;;;;;4.47;2.40;;;15.70;99.90;;;;;;5070594;28;20521;-69
2023/10/04 07:50:09;;;;;;;10.03;2.63;;;15.30;99.90;;;;;;5070492;28;20940;-69
2023/10/04 07:52:40;;;;;;;4.30;2.70;;;15.20;99.90;;;;;;5072548;28;20871;-69
2023/10/04 07:55:18;;;;;;;6.90;2.57;;;15.40;99.90;;;;;;5059617;28;20440;-68
2023/10/04 07:57:49;;;;;;;8.20;3.33;;;15.40;99.90;;;;;;5068698;28;20440;-69
2023/10/04 08:00:16;;;;;;;3.93;1.97;;;15.90;99.90;;;;;;5065770;28;20434;-72
2023/10/04 08:02:50;;;;;;;6.67;2.97;;;15.90;99.90;;;;;;5060454;28;21044;-70
2023/10/04 08:05:29;;;;;;;2.80;2.10;;;15.40;99.90;;;;;;5070738;28;20419;-70
2023/10/04 08:07:56;;;;;;;7.80;2.80;;;15.40;99.90;;;;;;5065411;28;20501;-71
2023/10/04 08:10:25;;;;;;;5.00;2.87;;;15.70;99.90;;;;;;5064599;28;20468;-68
2023/10/04 08:13:01;;;;;;;6.90;2.50;;;16.40;99.90;;;;;;5061040;28;20456;-69
2023/10/04 08:15:28;;;;;;;6.13;2.87;;;16.70;99.90;;;;;;5069550;28;20428;-69
2023/10/04 08:17:55;;;;;;;6.83;2.50;;;16.30;99.90;;;;;;5069299;28;20406;-70
2023/10/04 08:20:23;;;;;;;5.37;2.70;;;16.10;99.90;;;;;;5067384;28;20432;-70
2023/10/04 08:22:49;;;;;;;5.17;2.63;;;16.20;99.90;;;;;;5062201;28;20418;-69
2023/10/04 08:25:17;;;;;;;5.43;2.37;;;16.60;99.90;;;;;;5061990;28;20787;-69
2023/10/04 08:27:44;;;;;;;5.83;2.20;;;17.20;99.90;;;;;;5063641;28;20848;-71
2023/10/04 08:30:12;;;;;;;4.60;3.40;;;17.10;99.90;;;;;;5060168;28;20445;-69
2023/10/04 08:32:41;;;;;;;3.70;2.07;;;17.20;99.90;;;;;;5066717;28;20453;-71
2023/10/04 08:35:33;;;;;;;6.57;3.47;;;16.80;99.90;;;;;;5073076;28;20810;-70
2023/10/04 08:38:00;;;;;;;7.37;3.03;;;16.70;99.90;;;;;;5063047;28;20957;-71
2023/10/04 08:40:29;;;;;;;5.50;2.30;;;16.30;99.90;;;;;;5078841;28;20434;-71
2023/10/04 08:42:56;;;;;;;6.50;3.20;;;16.70;99.90;;;;;;5070845;28;20430;-69
2023/10/04 08:45:29;;;;;;;6.77;2.77;;;16.90;99.90;;;;;;5068270;28;20814;-70
2023/10/04 08:47:56;;;;;;;4.77;1.90;;;16.60;99.90;;;;;;5055362;28;20435;-69
2023/10/04 08:50:29;;;;;;;5.93;4.00;;;16.30;99.90;;;;;;5069490;28;20439;-70
2023/10/04 08:53:03;;;;;;;8.20;2.80;;;16.50;99.90;;;;;;5069853;28;20507;-70
2023/10/04 08:55:42;;;;;;;7.07;2.47;;;16.10;99.90;;;;;;5053643;28;20845;-69
2023/10/04 08:58:10;;;;;;;5.07;2.33;;;16.20;99.90;;;;;;5050975;28;20406;-70
2023/10/04 09:00:39;;;;;;;13.47;5.40;;;16.10;99.90;;;;;;5051071;28;20849;-69
2023/10/04 09:03:07;;;;;;;5.87;3.07;;;16.30;99.90;;;;;;5069767;28;21019;-70
2023/10/04 09:05:33;;;;;;;4.30;2.20;;;16.50;99.90;;;;;;5061916;28;20438;-70
2023/10/04 09:08:01;;;;;;;4.00;2.10;;;16.70;99.90;;;;;;5052705;28;20407;-69
2023/10/04 09:10:32;;;;;;;7.60;4.97;;;16.50;99.90;;;;;;5051629;28;20434;-69
2023/10/04 09:12:58;;;;;;;5.87;2.73;;;16.40;99.90;;;;;;5059071;28;20455;-70
2023/10/04 09:15:24;;;;;;;5.67;2.83;;;16.00;99.90;;;;;;5070127;28;21069;-71
2023/10/04 09:17:57;;;;;;;4.43;2.63;;;15.80;99.90;;;;;;5059737;28;20190;-70
2023/10/04 09:20:33;;;;;;;5.83;2.83;;;16.00;99.90;;;;;;5064645;28;20665;-70
2023/10/04 09:22:59;;;;;;;7.23;3.50;;;16.10;99.90;;;;;;5057573;28;20802;-70
2023/10/04 09:25:38;;;;;;;5.67;2.40;;;16.20;99.90;;;;;;5060654;28;20604;-71
2023/10/04 09:28:05;;;;;;;4.20;2.30;;;16.10;99.90;;;;;;5051464;28;20432;-69
2023/10/04 09:30:34;;;;;;;6.40;2.80;;;16.00;99.90;;;;;;5060060;28;20539;-67
2023/10/04 09:32:59;;;;;;;6.93;2.83;;;16.10;99.90;;;;;;5054047;28;20556;-70
2023/10/04 09:35:43;;;;;;;6.10;3.37;;;16.00;99.90;;;;;;5066661;28;20527;-70
2023/10/04 09:38:21;;;;;;;7.30;2.60;;;16.20;99.90;;;;;;5067532;28;20182;-70
2023/10/04 09:40:51;;;;;;;8.07;3.40;;;16.10;99.90;;;;;;5062602;28;20483;-70
2023/10/04 09:43:17;;;;;;;6.00;3.27;;;16.30;99.90;;;;;;5059914;28;20412;-69
2023/10/04 09:45:58;;;;;;;6.07;4.10;;;16.40;99.90;;;;;;5063245;28;20474;-69
2023/10/04 09:48:30;;;;;;;5.23;3.70;;;16.50;99.90;;;;;;5052823;28;20434;-70
2023/10/04 09:51:00;;;;;;;7.17;3.63;;;16.70;99.90;;;;;;5063930;28;20427;-74
2023/10/04 09:53:26;;;;;;;6.83;5.30;;;16.50;99.90;;;;;;5063138;28;20421;-70
2023/10/04 09:55:53;;;;;;;7.47;3.30;;;16.60;99.90;;;;;;5063215;28;20799;-71
2023/10/04 09:58:24;;;;;;;3.60;2.57;;;16.70;99.90;;;;;;5066392;28;20233;-71
2023/10/04 10:00:52;;;;;;;10.90;4.30;;;16.60;99.90;;;;;;5062317;28;20437;-71
2023/10/04 10:03:25;;;;;;;9.23;2.90;;;16.70;99.90;;;;;;5081405;28;20782;-71
2023/10/04 10:05:56;;;;;;;8.73;3.37;;;17.00;99.90;;;;;;5080188;28;20460;-71
2023/10/04 10:08:25;;;;;;;8.93;3.87;;;16.60;99.90;;;;;;5056706;28;20541;-71
2023/10/04 10:10:51;;;;;;;4.20;2.97;;;16.70;99.90;;;;;;5058948;28;20420;-71
2023/10/04 10:13:18;;;;;;;4.03;2.37;;;16.50;99.90;;;;;;5059720;28;20469;-71
2023/10/04 10:15:44;;;;;;;13.43;2.60;;;16.40;99.90;;;;;;5064854;28;20632;-72
2023/10/04 10:18:11;;;;;;;12.87;2.60;;;16.50;99.90;;;;;;5067593;28;20535;-70
2023/10/04 10:20:39;;;;;;;4.90;2.97;;;16.50;99.90;;;;;;5065013;28;20261;-71
2023/10/04 10:23:13;;;;;;;7.30;3.10;;;16.20;99.90;;;;;;5070937;28;20433;-73
2023/10/04 10:25:40;;;;;;;4.60;2.47;;;16.50;99.90;;;;;;5080406;28;20827;-73
2023/10/04 10:28:19;;;;;;;7.87;2.47;;;16.70;99.90;;;;;;5077305;28;20447;-72
2023/10/04 10:30:44;;;;;;;3.73;2.50;;;16.60;99.90;;;;;;5070304;28;20846;-72
2023/10/04 10:33:12;;;;;;;6.47;3.33;;;16.60;99.90;;;;;;5071271;28;20465;-72
2023/10/04 10:35:50;;;;;;;5.73;2.50;;;16.40;99.90;;;;;;5073701;28;20180;-73
2023/10/04 10:38:41;;;;;;;7.07;2.43;;;16.30;99.90;;;;;;5065031;28;20428;-72
2023/10/04 10:41:11;;;;;;;6.93;2.93;;;16.40;99.90;;;;;;5064885;28;20412;-73
2023/10/04 10:44:17;;;;;;;7.87;2.70;;;16.50;99.90;;;;;;5072338;28;20455;-72
2023/10/04 10:47:06;;;;;;;6.00;2.10;;;16.30;99.90;;;;;;5069562;28;20514;-73
2023/10/04 10:50:01;;;;;;;3.80;2.17;;;16.40;99.90;;;;;;5067786;28;20435;-72
2023/10/04 10:52:38;;;;;;;3.20;2.33;;;16.40;99.90;;;;;;5066578;28;20814;-73
2023/10/04 10:55:06;;;;;;;2.77;2.23;;;16.40;99.90;;;;;;5065773;28;20415;-70
2023/10/04 10:57:36;;;;;;;8.07;2.60;;;16.60;99.90;;;;;;5079995;28;20525;-72
2023/10/04 11:00:19;;;;;;;6.13;2.27;;;16.50;99.90;;;;;;5070955;28;20442;-73
2023/10/04 11:02:48;;;;;;;10.50;3.10;;;16.40;99.90;;;;;;5071278;28;20431;-71
2023/10/04 11:05:16;;;;;;;4.93;2.10;;;16.40;99.90;;;;;;5067994;28;20423;-73
2023/10/04 11:07:47;;;;;;;2.73;2.37;;;16.60;99.90;;;;;;5075143;28;20959;-72
2023/10/04 11:10:17;;;;;;;7.00;2.57;;;16.80;99.90;;;;;;5070588;28;20511;-73
2023/10/04 11:12:44;;;;;;;4.20;2.50;;;16.80;99.90;;;;;;5068306;28;20460;-73
2023/10/04 11:15:10;;;;;;;7.33;2.70;;;16.90;99.90;;;;;;5075448;28;20438;-72
2023/10/04 11:17:38;;;;;;;5.40;2.37;;;16.80;99.90;;;;;;5077090;28;20441;-73
2023/10/04 11:20:11;;;;;;;5.47;2.63;;;16.90;99.90;;;;;;5072045;28;20431;-73
2023/10/04 11:22:43;;;;;;;3.77;2.50;;;16.70;99.90;;;;;;5053429;28;20426;-73
2023/10/04 11:25:11;;;;;;;6.27;2.60;;;16.90;99.90;;;;;;5063524;28;20585;-72
2023/10/04 11:27:40;;;;;;;7.90;2.67;;;17.10;99.90;;;;;;5074376;28;20477;-73
2023/10/04 11:30:07;;;;;;;5.90;2.53;;;17.00;99.90;;;;;;5062717;28;20795;-73
2023/10/04 11:32:33;;;;;;;5.83;2.43;;;17.10;99.90;;;;;;5065430;28;20470;-74
2023/10/04 11:34:59;;;;;;;4.47;2.50;;;17.00;99.90;;;;;;5068539;28;21009;-73
2023/10/04 11:37:31;;;;;;;5.10;3.50;;;16.90;99.90;;;;;;5059594;28;20195;-74
2023/10/04 11:39:57;;;;;;;2.93;2.30;;;17.20;99.90;;;;;;5072911;28;20420;-73
2023/10/04 11:42:24;;;;;;;6.87;2.33;;;17.40;99.90;;;;;;5053407;28;20445;-73
2023/10/04 11:44:50;;;;;;;6.37;2.20;;;17.30;99.90;;;;;;5067212;28;20213;-75
2023/10/04 11:47:32;;;;;;;4.90;2.50;;;17.40;99.90;;;;;;5071646;28;20446;-72
2023/10/04 11:50:00;;;;;;;5.57;2.23;;;17.40;99.90;;;;;;5075663;28;20441;-74
2023/10/04 11:52:36;;;;;;;7.70;3.20;;;17.40;99.90;;;;;;5073013;28;20456;-73
2023/10/04 11:55:02;;;;;;;6.33;2.60;;;17.40;99.90;;;;;;5063259;28;20928;-72
2023/10/04 11:57:31;;;;;;;5.70;2.57;;;17.40;99.90;;;;;;5060106;28;20450;-72
2023/10/04 11:59:57;;;;;;;6.03;2.20;;;17.70;99.90;;;;;;5067305;28;20174;-74
2023/10/04 12:02:25;;;;;;;9.10;2.80;;;17.40;99.90;;;;;;5067792;28;20459;-74
2023/10/04 12:04:51;;;;;;;7.33;3.07;;;17.50;99.90;;;;;;5067965;28;20879;-73
2023/10/04 12:07:17;;;;;;;4.67;2.33;;;17.20;99.90;;;;;;5064734;28;20488;-73
2023/10/04 12:09:43;;;;;;;7.40;2.43;;;16.80;99.90;;;;;;5067574;28;20439;-73
2023/10/04 12:12:08;;;;;;;6.57;2.57;;;16.80;99.90;;;;;;5069045;28;20623;-73
2023/10/04 12:14:34;;;;;;;5.73;2.60;;;16.90;99.90;;;;;;5069740;28;20528;-72
2023/10/04 12:17:04;;;;;;;4.93;2.97;;;16.80;99.90;;;;;;5072271;28;20197;-73
2023/10/04 12:19:37;;;;;;;5.40;2.53;;;16.70;99.90;;;;;;5056339;28;20667;-72
2023/10/04 12:22:11;;;;;;;5.80;2.67;;;16.90;99.90;;;;;;5068291;28;20438;-73
2023/10/04 12:24:40;;;;;;;7.80;3.60;;;16.90;99.90;;;;;;5061720;28;20441;-74
2023/10/04 12:27:09;;;;;;;3.33;2.50;;;17.00;99.90;;;;;;5066655;28;20451;-72
2023/10/04 12:29:36;;;;;;;5.07;2.93;;;17.10;99.90;;;;;;5066776;28;20410;-74
2023/10/04 12:32:03;;;;;;;6.63;2.70;;;17.20;99.90;;;;;;5067721;28;20907;-74
2023/10/04 12:34:29;;;;;;;10.37;2.40;;;17.20;99.90;;;;;;5066884;28;20436;-71
2023/10/04 12:36:55;;;;;;;7.73;2.60;;;17.10;99.90;;;;;;5062964;28;20437;-73
2023/10/04 12:39:21;;;;;;;4.33;2.37;;;16.90;99.90;;;;;;5070503;28;20497;-73
2023/10/04 12:41:50;;;;;;;6.43;3.53;;;17.00;99.90;;;;;;5072334;28;20431;-75
2023/10/04 12:44:19;;;;;;;5.03;2.90;;;17.00;99.90;;;;;;5069910;28;20412;-75
2023/10/04 12:46:47;;;;;;;4.40;3.57;;;17.00;99.90;;;;;;5051847;28;20467;-74
2023/10/04 12:49:13;;;;;;;6.33;2.93;;;16.90;99.90;;;;;;5063030;28;20435;-73
2023/10/04 12:51:39;;;;;;;7.63;4.10;;;16.50;99.90;;;;;;5061658;28;20465;-73
2023/10/04 12:54:07;;;;;;;7.27;3.00;;;16.50;99.90;;;;;;5064114;28;20438;-71
2023/10/04 12:56:33;;;;;;;7.30;2.70;;;16.50;99.90;;;;;;5059614;28;20201;-72